Weather observations for the past three days for
Shelbyville Municipal Airport
Imperial (Metric)
Date Time (edt) Wind (mph) Vis. (mi.) Weather Sky Cond. Temperature (ºF) Relative Humidity Wind Chill (°F) Heat Index (°F) Pressure Precipitation (in)
Air Dwpt 6 hour altimeter (in) sea level (mb) 1 hr 3 hr 6 hr
Max. Min.
05 23:53 NE 7 10.00 A Few Clouds FEW013 73.9 71.1 91% 29.93 1012.8
05 22:53 NE 7 10.00 A Few Clouds FEW065 73 71.1 94% 29.93 1012.8
05 20:53 N 6 10.00 Fair CLR 75.9 70 82% 77 29.9 1011.7
05 19:53 NE 7 10.00 Fair CLR 80.1 72 91.9 80.1 76% 84 29.89 1011.3
05 18:53 Vrbl 3 10.00 Fair CLR 88 73.9 63% 97 29.88 1011.1
05 17:53 W 5 10.00 Fair CLR 88 72 59% 95 29.86 1010.5
05 16:53 W 7 10.00 Fair CLR 91 72 54% 99 29.87 1010.7
05 13:53 SW 8 10.00 Fair CLR 89.1 69.1 89.1 70 52% 94 29.93 1012.8
05 12:53 S 7 10.00 Fair CLR 86 66.9 53% 89 29.96 1013.6
05 11:53 S 7 10.00 Fair CLR 82.9 66 57% 85 29.97 1014.0
05 09:53 S 6 10.00 Fair CLR 77 64.9 66% 79 29.98 1014.5
05 08:53 SE 9 10.00 Fair CLR 73 64.9 76% 29.99 1014.7
05 07:53 E 9 10.00 Partly Cloudy FEW070 FEW100 SCT110 70 64.9 75 70 84% 29.97 1014.3
05 06:53 E 15 G 23 10.00 Overcast BKN070 OVC090 71.1 66 84% 29.97 1014.0
05 05:53 Calm 8.00 Fair CLR 72 71.1 97% 29.93 1012.7
05 04:53 E 5 8.00 Fair CLR 72 71.1 97% 29.93 1012.7
05 03:53 SW 3 10.00 Fair CLR 73 72 96% 29.91 1012.0
05 02:53 S 6 10.00 Fair CLR 75 72 90% 74 29.92 1012.2
05 01:53 S 3 10.00 Fair CLR 72 70 82 72 94% 29.94 1013.0
05 00:53 S 3 10.00 Fair CLR 73 71.1 94% 29.95 1013.3
04 23:53 Calm 10.00 Fair CLR 73 71.1 94% 29.95 1013.4
04 22:53 E 5 10.00 Fair CLR 73.9 71.1 91% 29.95 1013.5
04 21:53 E 3 10.00 Fair CLR 75.9 72 88% 76 29.95 1013.3
04 20:53 SE 5 10.00 Fair CLR 78.1 72 82% 80 29.94 1013.0
04 19:53 E 9 10.00 Fair CLR 82 73 96.1 82 74% 87 29.94 1013.0
04 18:53 W 6 10.00 Fair CLR 91.9 73 54% 101 29.93 1012.5
04 17:53 SW 7 10.00 Fair CLR 93.9 72 49% 102 29.92 1012.3
04 16:53 E 6 10.00 A Few Clouds FEW060 90 79 70% 106 29.94 1013.0
04 15:53 E 3 10.00 Partly Cloudy SCT065 SCT080 88 75 66% 98 29.96 1013.5
04 14:53 W 10 10.00 Thunderstorm in Vicinity FEW090 95 73 49% 105 29.97 1014.1
04 13:53 W 6 10.00 Fair CLR 93.9 73 93.9 73.9 51% 103 30 1014.9
04 12:53 W 7 10.00 Fair CLR 93 73 52% 102 30.02 1015.6
04 11:53 W 12 G 18 10.00 Fair CLR 91 73 56% 100 30.02 1015.6
04 10:53 Vrbl 3 10.00 Fair CLR 88 73.9 63% 97 30.02 1015.8
04 09:53 Calm 10.00 Fair CLR 84 73 70% 90 30.01 1015.5
04 08:53 SW 5 10.00 Fair CLR 80.1 72 76% 84 30.02 1015.6
04 07:53 Calm 10.00 Fair CLR 73.9 71.1 75.9 72 91% 30 1015.0
04 06:53 S 6 10.00 Fair CLR 73.9 71.1 91% 29.97 1014.1
04 05:53 S 6 10.00 Fair CLR 73.9 71.1 91% 29.98 1014.3
04 04:53 S 3 10.00 Fair CLR 75.9 72 88% 76 29.98 1014.2
04 03:53 Calm 10.00 A Few Clouds FEW110 75 72 90% 74 29.98 1014.3
04 02:53 Calm 10.00 Mostly Cloudy BKN070 BKN110 75 72 90% 74 29.99 1014.5
04 01:53 E 3 10.00 Fair CLR 73 71.1 87.1 73 94% 30 1014.8
04 00:53 SE 5 10.00 Fair CLR 75 72 90% 74 29.99 1014.7
03 23:53 SE 3 10.00 Fair CLR 78.1 73 85% 81 29.99 1014.5
03 22:53 Calm 10.00 Fair CLR 77 73 88% 78 29.99 1014.8
03 21:53 Calm 10.00 Fair CLR 79 73.9 85% 83 29.99 1014.8
03 20:53 S 3 10.00 Fair CLR 80.1 75 85% 85 29.98 1014.4
03 19:53 Calm 10.00 Fair CLR 87.1 73.9 93.9 87.1 65% 95 29.97 1014.0
03 18:53 SW 5 10.00 Fair CLR 91 73 56% 100 29.96 1013.7
03 17:53 SW 7 10.00 Fair CLR 93 72 50% 101 29.95 1013.3
03 16:53 W 8 10.00 A Few Clouds FEW060 93 71.1 49% 100 29.96 1013.6
03 15:53 W 9 10.00 Fair CLR 93.9 71.1 48% 101 29.98 1014.3
03 14:53 W 10 10.00 Fair CLR 93 70 47% 99 30 1014.8
03 13:53 W 12 10.00 Fair CLR 91.9 71.1 93 72 51% 99 30 1015.1
03 12:53 W 10 10.00 Fair CLR 91.9 73 54% 101 30.02 1015.7
03 11:53 SW 6 10.00 Fair CLR 89.1 73.9 61% 98 30.03 1016.1
03 10:53 SW 8 10.00 Fair CLR 86 73 65% 93 30.03 1016.1
03 09:53 SW 6 10.00 Fair CLR 82 73 74% 87 30.04 1016.3
03 08:53 S 7 10.00 Fair CLR 78.1 72 82% 80 30.05 1016.6
03 07:53 Calm 6.00 Fog/Mist CLR 72 70 75.9 70 94% 30.04 1016.5
03 06:53 Calm 8.00 Fair CLR 70 69.1 97% 30.03 1016.0
03 05:53 S 3 10.00 Fair CLR 73 71.1 94% 30.02 1015.7
03 04:53 S 3 9.00 Fair CLR 73 71.1 94% 30.02 1015.7
03 03:53 Calm 10.00 Fair CLR 72 70 94% 30.02 1015.6
03 02:53 S 5 10.00 Fair CLR 75.9 72 88% 76 30.01 1015.5
03 01:53 S 3 10.00 Fair CLR 75.9 72 84.9 75.9 88% 76 30.01 1015.5
03 00:53 S 6 10.00 Fair CLR 78.1 72 82% 80 30 1015.1
Date Time (edt) Wind (mph) Vis. (mi.) Weather Sky Cond. Air Dwpt Max. Min. Relative Humidity Wind Chill (°F) Heat Index (°F) altimeter (in) sea level (mb) 1 hr 3 hr 6 hr
6 hour
Temperature (ºF) Pressure Precipitation (in)